Time;durP1;ratioP1;P1;durP2;ratioP2;P2;SDS_P1;SDS_P2;PMS_P1;PMS_P2;Temp;Humidity;BMP_temperature;BMP_pressure;BME280_temperature;BME280_humidity;BME280_pressure;Samples;Min_cycle;Max_cycle;Signal;HPM_P1;HPM_P2
2021/05/22 00:01:41;;;;;;;5.85;2.47;;;11.10;90.40;;;;;;5068978;28;20108;-74
2021/05/22 00:04:06;;;;;;;9.68;1.98;;;11.10;90.40;;;;;;5067525;28;20036;-72
2021/05/22 00:06:32;;;;;;;5.03;2.58;;;11.10;90.30;;;;;;5066710;28;20032;-72
2021/05/22 00:08:58;;;;;;;4.88;2.13;;;11.10;90.30;;;;;;5066993;28;20028;-74
2021/05/22 00:11:23;;;;;;;5.85;2.20;;;11.10;90.10;;;;;;5066036;28;20028;-72
2021/05/22 00:13:49;;;;;;;10.50;2.90;;;11.10;90.20;;;;;;5063662;28;20037;-72
2021/05/22 00:16:16;;;;;;;7.63;2.40;;;11.10;90.20;;;;;;5065977;28;20024;-72
2021/05/22 00:18:42;;;;;;;6.93;2.33;;;11.10;90.00;;;;;;5069770;28;20025;-72
2021/05/22 00:21:07;;;;;;;5.93;2.22;;;11.10;89.50;;;;;;5067913;28;20086;-72
2021/05/22 00:23:33;;;;;;;7.25;2.50;;;11.10;90.20;;;;;;5065289;28;20028;-71
2021/05/22 00:25:59;;;;;;;7.07;1.70;;;11.10;90.00;;;;;;5065022;28;20032;-72
2021/05/22 00:28:25;;;;;;;5.70;1.70;;;11.10;88.00;;;;;;5064036;28;20438;-73
2021/05/22 00:30:51;;;;;;;4.95;1.38;;;11.10;88.40;;;;;;5065165;28;20068;-73
2021/05/22 00:33:16;;;;;;;5.40;1.80;;;11.10;88.80;;;;;;5067073;28;20067;-73
2021/05/22 00:35:43;;;;;;;3.67;1.80;;;11.10;88.90;;;;;;5068596;28;20466;-73
2021/05/22 00:38:10;;;;;;;5.70;1.92;;;11.10;88.20;;;;;;5063430;28;20025;-73
2021/05/22 00:40:38;;;;;;;7.07;1.90;;;11.10;88.20;;;;;;5066317;28;20059;-73
2021/05/22 00:43:03;;;;;;;7.90;1.98;;;11.10;88.20;;;;;;5063839;28;20025;-73
2021/05/22 00:45:31;;;;;;;5.65;1.60;;;11.00;88.30;;;;;;5072332;28;20028;-73
2021/05/22 00:47:57;;;;;;;5.78;1.95;;;11.00;88.60;;;;;;5069161;28;20082;-73
2021/05/22 00:50:38;;;;;;;5.15;1.67;;;11.00;89.30;;;;;;5065725;28;20028;-73
2021/05/22 00:53:06;;;;;;;6.70;1.80;;;11.00;87.90;;;;;;5060068;28;20069;-73
2021/05/22 00:55:33;;;;;;;5.60;2.13;;;10.90;88.00;;;;;;5060526;28;20021;-73
2021/05/22 00:57:59;;;;;;;6.60;2.47;;;10.90;87.00;;;;;;5063313;28;20020;-73
2021/05/22 01:00:41;;;;;;;5.72;1.52;;;11.00;86.50;;;;;;5063530;28;20384;-73
2021/05/22 01:03:20;;;;;;;6.75;1.70;;;11.00;85.80;;;;;;5066425;28;20466;-73
2021/05/22 01:05:46;;;;;;;8.38;2.00;;;11.00;86.50;;;;;;5067817;28;20052;-73
2021/05/22 01:08:21;;;;;;;4.90;1.90;;;11.00;85.90;;;;;;5064099;28;20728;-73
2021/05/22 01:10:55;;;;;;;8.52;2.38;;;11.00;86.10;;;;;;5064101;28;20478;-73
2021/05/22 01:13:21;;;;;;;8.27;1.75;;;10.90;87.30;;;;;;5062075;28;20028;-73
2021/05/22 01:15:53;;;;;;;6.50;1.50;;;10.90;86.40;;;;;;5063289;28;20081;-73
2021/05/22 01:18:19;;;;;;;8.65;1.67;;;10.90;86.40;;;;;;5063613;28;20082;-73
2021/05/22 01:20:58;;;;;;;8.27;1.40;;;10.90;86.80;;;;;;5066032;28;20107;-73
2021/05/22 01:23:33;;;;;;;7.72;1.75;;;10.90;86.20;;;;;;5067746;28;20029;-72
2021/05/22 01:25:59;;;;;;;10.75;2.00;;;10.80;86.70;;;;;;5066144;28;20119;-72
2021/05/22 01:28:26;;;;;;;7.30;1.92;;;10.80;87.60;;;;;;5051449;28;20075;-73
2021/05/22 01:30:51;;;;;;;8.48;1.60;;;10.80;86.40;;;;;;5073454;28;20085;-73
2021/05/22 01:33:20;;;;;;;4.80;1.65;;;10.80;86.00;;;;;;5067611;28;20032;-73
2021/05/22 01:35:46;;;;;;;6.30;1.20;;;10.70;86.50;;;;;;5052860;28;20482;-72
2021/05/22 01:38:12;;;;;;;8.30;1.80;;;10.80;86.40;;;;;;5067516;28;20025;-72
2021/05/22 01:40:38;;;;;;;5.47;1.67;;;10.80;86.10;;;;;;5072004;28;20036;-72
2021/05/22 01:43:06;;;;;;;6.15;1.70;;;10.80;85.70;;;;;;5069288;28;20028;-73
2021/05/22 01:45:34;;;;;;;6.53;1.50;;;10.80;85.80;;;;;;5068953;28;20438;-73
2021/05/22 01:48:02;;;;;;;7.85;1.58;;;10.80;85.60;;;;;;5069157;28;20474;-73
2021/05/22 01:50:31;;;;;;;8.57;1.75;;;10.80;84.10;;;;;;5071047;28;20032;-72
2021/05/22 01:52:59;;;;;;;5.45;1.63;;;10.80;84.40;;;;;;5066662;28;20067;-73
2021/05/22 01:55:27;;;;;;;5.32;1.33;;;10.70;84.90;;;;;;5072949;28;20472;-72
2021/05/22 01:57:53;;;;;;;3.38;1.00;;;10.70;84.90;;;;;;5062670;28;20037;-72
2021/05/22 02:00:19;;;;;;;8.82;2.13;;;10.70;86.00;;;;;;5067884;28;20090;-72
2021/05/22 02:02:57;;;;;;;4.43;1.30;;;10.70;85.50;;;;;;5067802;28;20111;-72
2021/05/22 02:05:23;;;;;;;5.78;1.25;;;10.70;83.70;;;;;;5069310;28;20032;-72
2021/05/22 02:07:52;;;;;;;7.38;1.92;;;10.70;83.30;;;;;;5070875;28;20040;-73
2021/05/22 02:10:18;;;;;;;4.63;1.52;;;10.70;83.90;;;;;;5067060;28;20278;-72
2021/05/22 02:12:46;;;;;;;4.70;1.35;;;10.70;83.30;;;;;;5070686;28;20494;-72
2021/05/22 02:15:14;;;;;;;4.68;1.38;;;10.70;83.50;;;;;;5067344;28;20105;-73
2021/05/22 02:17:41;;;;;;;4.75;1.63;;;10.70;83.70;;;;;;5065349;28;20029;-72
2021/05/22 02:20:10;;;;;;;5.68;1.48;;;10.70;84.00;;;;;;5071340;28;20048;-72
2021/05/22 02:22:39;;;;;;;3.75;1.27;;;10.70;84.60;;;;;;5068395;28;20505;-73
2021/05/22 02:25:06;;;;;;;7.93;1.23;;;10.60;84.50;;;;;;5051570;28;20486;-72
2021/05/22 02:27:33;;;;;;;8.48;1.35;;;10.60;84.90;;;;;;5070931;28;20136;-73
2021/05/22 02:30:01;;;;;;;7.00;1.40;;;10.60;85.20;;;;;;5070201;28;20070;-72
2021/05/22 02:32:28;;;;;;;7.38;1.38;;;10.60;85.50;;;;;;5071100;28;20074;-72
2021/05/22 02:34:57;;;;;;;5.63;1.27;;;10.70;85.70;;;;;;5068646;28;20033;-72
2021/05/22 02:37:28;;;;;;;5.45;1.50;;;10.60;85.80;;;;;;5062462;28;20033;-72
2021/05/22 02:39:58;;;;;;;5.40;1.30;;;10.70;86.00;;;;;;5064691;28;20036;-72
2021/05/22 02:42:26;;;;;;;7.32;1.38;;;10.60;86.30;;;;;;5067232;28;20397;-72
2021/05/22 02:44:53;;;;;;;4.53;1.70;;;10.60;86.70;;;;;;5065491;28;20044;-72
2021/05/22 02:47:20;;;;;;;5.55;1.60;;;10.60;86.80;;;;;;5070531;28;20025;-73
2021/05/22 02:49:48;;;;;;;6.15;1.50;;;10.60;87.10;;;;;;5048426;28;20156;-72
2021/05/22 02:52:19;;;;;;;7.45;2.00;;;10.50;87.30;;;;;;5064932;28;20025;-72
2021/05/22 02:54:47;;;;;;;4.07;1.50;;;10.50;87.70;;;;;;5065659;28;20028;-73
2021/05/22 02:57:14;;;;;;;6.55;1.95;;;10.50;88.00;;;;;;5065903;28;20036;-72
2021/05/22 02:59:40;;;;;;;7.88;2.20;;;10.40;87.80;;;;;;5065800;28;20091;-73
2021/05/22 03:02:08;;;;;;;4.70;1.98;;;10.40;88.10;;;;;;5067695;28;20044;-73
2021/05/22 03:04:34;;;;;;;7.57;2.28;;;10.40;88.30;;;;;;5051098;28;20414;-73
2021/05/22 03:07:03;;;;;;;9.32;1.67;;;10.30;88.90;;;;;;5066980;28;20029;-73
2021/05/22 03:09:29;;;;;;;6.90;1.90;;;10.30;88.00;;;;;;5065556;28;20021;-72
2021/05/22 03:11:56;;;;;;;5.35;1.77;;;10.30;88.30;;;;;;5052367;28;20021;-72
2021/05/22 03:14:22;;;;;;;9.02;1.55;;;10.30;88.50;;;;;;5068206;28;20532;-72
2021/05/22 03:16:48;;;;;;;8.57;1.77;;;10.30;88.80;;;;;;5051243;28;20024;-72
2021/05/22 03:19:14;;;;;;;6.53;1.70;;;10.20;88.40;;;;;;5069781;28;20052;-72
2021/05/22 03:21:40;;;;;;;6.30;1.65;;;10.30;88.50;;;;;;5068896;28;20560;-72
2021/05/22 03:24:07;;;;;;;6.72;2.17;;;10.20;88.20;;;;;;5066554;28;20044;-72
2021/05/22 03:26:33;;;;;;;9.43;1.90;;;10.30;88.90;;;;;;5047862;28;20040;-72
2021/05/22 03:28:58;;;;;;;3.85;1.30;;;10.20;88.60;;;;;;5067284;28;20082;-72
2021/05/22 03:31:24;;;;;;;3.67;1.50;;;10.20;88.10;;;;;;5066517;28;20033;-73
2021/05/22 03:33:50;;;;;;;6.00;1.67;;;10.20;88.30;;;;;;5065217;28;20043;-74
2021/05/22 03:36:16;;;;;;;7.40;2.22;;;10.30;88.70;;;;;;5063045;28;20032;-74
2021/05/22 03:38:42;;;;;;;5.07;1.50;;;10.20;88.50;;;;;;5068491;28;20078;-73
2021/05/22 03:41:08;;;;;;;6.95;1.60;;;10.20;88.50;;;;;;5066269;28;20032;-73
2021/05/22 03:43:33;;;;;;;6.85;1.52;;;10.30;88.70;;;;;;5066131;28;20024;-73
2021/05/22 03:45:59;;;;;;;8.40;1.67;;;10.20;89.00;;;;;;5066348;28;20103;-73
2021/05/22 03:48:25;;;;;;;4.40;1.77;;;10.30;88.90;;;;;;5065941;28;20052;-73
2021/05/22 03:50:51;;;;;;;5.38;1.83;;;10.20;89.40;;;;;;5069977;28;20068;-73
2021/05/22 03:53:17;;;;;;;4.68;1.40;;;10.20;89.40;;;;;;5069488;28;20021;-73
2021/05/22 03:55:43;;;;;;;11.88;2.45;;;10.20;89.60;;;;;;5069057;28;20024;-73
2021/05/22 03:58:08;;;;;;;5.90;1.63;;;10.30;89.60;;;;;;5069280;28;20016;-73
2021/05/22 04:00:35;;;;;;;4.00;1.40;;;10.20;89.80;;;;;;5066658;28;20033;-73
2021/05/22 04:03:01;;;;;;;5.85;1.40;;;10.20;89.70;;;;;;5068481;28;20082;-73
2021/05/22 04:05:27;;;;;;;5.68;2.00;;;10.20;89.70;;;;;;5067750;28;20035;-73
2021/05/22 04:07:53;;;;;;;6.80;1.73;;;10.30;90.00;;;;;;5069036;28;20032;-73
2021/05/22 04:10:18;;;;;;;4.78;1.58;;;10.20;89.80;;;;;;5069008;28;20039;-73
2021/05/22 04:12:44;;;;;;;5.78;1.67;;;10.30;89.80;;;;;;5070732;28;20040;-74
2021/05/22 04:15:11;;;;;;;5.72;1.63;;;10.30;89.50;;;;;;5069682;28;20087;-73
2021/05/22 04:17:39;;;;;;;5.40;1.85;;;10.30;89.60;;;;;;5069330;28;20032;-73
2021/05/22 04:20:05;;;;;;;4.63;1.73;;;10.30;89.80;;;;;;5069317;28;20327;-73
2021/05/22 04:22:31;;;;;;;4.78;1.38;;;10.30;89.40;;;;;;5069101;28;20052;-73
2021/05/22 04:24:57;;;;;;;7.10;1.52;;;10.30;89.60;;;;;;5069554;28;20114;-74
2021/05/22 04:27:22;;;;;;;5.03;1.25;;;10.30;89.90;;;;;;5069782;28;20152;-73
2021/05/22 04:29:48;;;;;;;12.13;2.67;;;10.30;89.70;;;;;;5069459;28;20466;-73
2021/05/22 04:32:14;;;;;;;5.65;1.52;;;10.30;89.70;;;;;;5070863;28;20100;-73
2021/05/22 04:34:40;;;;;;;6.03;1.88;;;10.30;89.20;;;;;;5049049;28;20031;-73
2021/05/22 04:37:05;;;;;;;7.18;1.90;;;10.30;89.10;;;;;;5071009;28;20479;-73
2021/05/22 04:39:31;;;;;;;2.65;1.15;;;10.40;89.50;;;;;;5069167;28;20362;-73
2021/05/22 04:41:57;;;;;;;5.05;1.50;;;10.40;88.60;;;;;;5069274;28;20032;-73
2021/05/22 04:44:23;;;;;;;6.63;1.30;;;10.50;88.50;;;;;;5067817;28;20086;-73
2021/05/22 04:46:49;;;;;;;4.85;1.15;;;10.50;88.50;;;;;;5070664;28;20131;-73
2021/05/22 04:49:18;;;;;;;5.82;1.55;;;10.50;87.40;;;;;;5063193;28;20437;-73
2021/05/22 04:51:45;;;;;;;4.65;1.38;;;10.50;87.20;;;;;;5068010;28;20099;-73
2021/05/22 04:54:11;;;;;;;6.13;1.25;;;10.60;87.50;;;;;;5067236;28;20028;-73
2021/05/22 04:56:37;;;;;;;4.80;1.42;;;10.60;87.50;;;;;;5068068;28;20034;-73
2021/05/22 04:59:04;;;;;;;10.70;1.83;;;10.60;87.40;;;;;;5068286;28;20020;-73
2021/05/22 05:01:31;;;;;;;6.15;1.50;;;10.70;87.40;;;;;;5065498;28;20021;-73
2021/05/22 05:03:56;;;;;;;4.22;1.33;;;10.70;87.20;;;;;;5062667;28;20032;-73
2021/05/22 05:06:22;;;;;;;5.40;1.20;;;10.80;87.10;;;;;;5068409;28;20032;-73
2021/05/22 05:08:49;;;;;;;4.88;1.30;;;10.80;86.90;;;;;;5067796;28;20071;-72
2021/05/22 05:11:14;;;;;;;7.00;1.55;;;10.90;86.50;;;;;;5070845;28;20032;-73
2021/05/22 05:13:40;;;;;;;4.22;1.20;;;10.90;86.20;;;;;;5071742;28;20479;-74
2021/05/22 05:16:06;;;;;;;5.25;1.42;;;11.00;86.20;;;;;;5050937;28;20123;-73
2021/05/22 05:18:31;;;;;;;6.65;1.58;;;11.10;85.90;;;;;;5069259;28;20056;-74
2021/05/22 05:20:58;;;;;;;5.00;1.42;;;11.10;84.80;;;;;;5066967;28;20063;-74
2021/05/22 05:23:24;;;;;;;3.25;0.90;;;11.30;85.30;;;;;;5068889;28;20032;-73
2021/05/22 05:25:52;;;;;;;4.22;0.88;;;11.40;83.90;;;;;;5068737;28;20045;-73
2021/05/22 05:28:19;;;;;;;5.95;1.45;;;11.40;84.00;;;;;;5067318;28;20478;-73
2021/05/22 05:30:45;;;;;;;4.60;1.02;;;11.50;84.30;;;;;;5069316;28;20028;-73
2021/05/22 05:33:11;;;;;;;4.75;1.17;;;11.60;83.70;;;;;;5069807;28;20060;-73
2021/05/22 05:35:37;;;;;;;3.50;1.00;;;11.70;83.20;;;;;;5070473;28;20508;-74
2021/05/22 05:38:03;;;;;;;3.47;1.15;;;11.70;82.90;;;;;;5063696;28;20062;-73
2021/05/22 05:40:29;;;;;;;6.88;1.10;;;11.80;80.90;;;;;;5064909;28;20072;-73
2021/05/22 05:42:55;;;;;;;5.70;1.05;;;11.80;80.70;;;;;;5048843;28;20033;-73
2021/05/22 05:45:21;;;;;;;9.35;0.90;;;11.90;80.30;;;;;;5067781;28;20028;-73
2021/05/22 05:47:47;;;;;;;6.07;0.70;;;11.90;80.50;;;;;;5068510;28;20021;-74
2021/05/22 05:50:13;;;;;;;9.13;1.98;;;11.90;79.90;;;;;;5066804;28;20036;-74
2021/05/22 05:52:38;;;;;;;4.43;1.00;;;11.90;79.80;;;;;;5069403;28;20040;-73
2021/05/22 05:55:05;;;;;;;4.32;1.10;;;11.90;80.60;;;;;;5069154;28;20028;-73
2021/05/22 05:57:30;;;;;;;6.75;1.15;;;11.90;80.20;;;;;;5062287;28;20017;-73
2021/05/22 05:59:56;;;;;;;4.20;0.80;;;11.90;80.40;;;;;;5067098;28;20151;-74
2021/05/22 06:02:22;;;;;;;5.18;1.15;;;11.80;80.70;;;;;;5068209;28;20402;-74
2021/05/22 06:04:47;;;;;;;4.05;1.30;;;11.90;80.60;;;;;;5067988;28;20055;-74
2021/05/22 06:07:13;;;;;;;5.38;0.98;;;11.90;80.50;;;;;;5068032;28;20035;-74
2021/05/22 06:09:41;;;;;;;11.85;1.40;;;12.00;80.10;;;;;;5068618;28;20452;-73
2021/05/22 06:12:08;;;;;;;3.88;1.13;;;12.10;80.80;;;;;;5052533;28;20028;-73
2021/05/22 06:14:37;;;;;;;6.60;1.10;;;12.20;79.80;;;;;;5071242;28;20033;-73
2021/05/22 06:17:03;;;;;;;5.57;1.20;;;12.30;79.60;;;;;;5064524;28;20036;-73
2021/05/22 06:19:28;;;;;;;7.65;1.95;;;12.40;79.30;;;;;;5072064;28;20448;-73
2021/05/22 06:21:54;;;;;;;4.25;0.98;;;12.40;78.40;;;;;;5069643;28;20612;-73
2021/05/22 06:24:20;;;;;;;5.45;1.30;;;12.40;78.90;;;;;;5054545;28;20024;-74
2021/05/22 06:26:54;;;;;;;3.28;1.00;;;12.40;79.30;;;;;;5070024;28;20020;-74
2021/05/22 06:29:20;;;;;;;3.75;1.08;;;12.40;79.00;;;;;;5066526;28;20028;-72
2021/05/22 06:31:46;;;;;;;4.93;1.10;;;12.40;77.90;;;;;;5068716;28;20032;-72
2021/05/22 06:34:19;;;;;;;4.07;1.05;;;12.40;78.50;;;;;;5069458;28;20069;-72
2021/05/22 06:36:45;;;;;;;3.67;0.98;;;12.40;79.00;;;;;;5067703;28;20017;-74
2021/05/22 06:39:10;;;;;;;9.65;1.23;;;12.50;79.00;;;;;;5070258;28;20520;-72
2021/05/22 06:41:36;;;;;;;2.88;1.20;;;12.50;78.60;;;;;;5069246;28;20032;-69
2021/05/22 06:44:04;;;;;;;3.58;1.27;;;12.40;78.40;;;;;;5065384;28;20044;-72
2021/05/22 06:48:56;;;;;;;6.60;1.45;;;12.40;79.50;;;;;;5067241;28;20080;-73
2021/05/22 06:51:21;;;;;;;5.68;1.35;;;12.40;79.80;;;;;;5071917;28;20446;-73
2021/05/22 06:53:50;;;;;;;6.18;1.15;;;12.50;79.60;;;;;;5072268;28;20028;-73
2021/05/22 06:56:19;;;;;;;4.60;1.00;;;12.50;79.40;;;;;;5071413;28;20035;-73
2021/05/22 06:58:44;;;;;;;2.60;1.10;;;12.50;79.70;;;;;;5066243;28;20021;-73
2021/05/22 07:01:10;;;;;;;4.88;0.95;;;12.60;79.00;;;;;;5067378;28;20040;-72
2021/05/22 07:03:36;;;;;;;3.92;1.30;;;12.70;78.50;;;;;;5070143;28;20039;-73
2021/05/22 07:06:03;;;;;;;6.20;1.20;;;12.70;79.10;;;;;;5069811;28;20033;-73
2021/05/22 07:08:28;;;;;;;3.65;1.00;;;12.80;79.10;;;;;;5070836;28;20107;-74
2021/05/22 07:10:55;;;;;;;2.97;0.98;;;12.80;78.40;;;;;;5069811;28;20450;-73
2021/05/22 07:13:22;;;;;;;6.65;1.40;;;12.90;78.70;;;;;;5068925;28;20194;-73
2021/05/22 07:15:48;;;;;;;3.70;1.42;;;12.90;78.60;;;;;;5071340;28;20025;-72
2021/05/22 07:18:14;;;;;;;6.88;1.38;;;13.00;78.60;;;;;;5067492;28;20035;-73
2021/05/22 07:20:39;;;;;;;2.42;1.20;;;13.10;77.50;;;;;;5064881;28;20025;-73
2021/05/22 07:23:05;;;;;;;5.40;1.25;;;13.10;77.40;;;;;;5071806;28;20028;-73
2021/05/22 07:25:31;;;;;;;4.28;0.95;;;13.00;76.10;;;;;;5069660;28;20028;-75
2021/05/22 07:27:56;;;;;;;3.50;0.90;;;13.00;76.60;;;;;;5071634;28;20044;-74
2021/05/22 07:30:23;;;;;;;4.82;0.98;;;13.00;77.60;;;;;;5068465;28;20025;-73
2021/05/22 07:32:49;;;;;;;5.65;1.30;;;13.00;77.70;;;;;;5064613;28;20029;-75
2021/05/22 07:35:15;;;;;;;2.53;0.93;;;13.00;76.30;;;;;;5070975;28;20033;-73
2021/05/22 07:37:42;;;;;;;3.53;1.20;;;13.00;76.70;;;;;;5070589;28;20020;-72
2021/05/22 07:40:10;;;;;;;5.32;0.90;;;13.00;76.60;;;;;;5067349;28;20017;-73
2021/05/22 07:42:36;;;;;;;4.93;1.20;;;13.10;77.80;;;;;;5053254;28;20494;-73
2021/05/22 07:45:03;;;;;;;4.32;1.02;;;13.10;77.10;;;;;;5072362;28;20042;-74
2021/05/22 07:47:29;;;;;;;8.25;1.20;;;13.10;77.00;;;;;;5069508;28;20031;-73
2021/05/22 07:49:54;;;;;;;4.85;1.08;;;13.10;76.40;;;;;;5071967;28;20123;-72
2021/05/22 07:52:22;;;;;;;5.82;0.80;;;13.10;76.50;;;;;;5067916;28;20047;-73
2021/05/22 07:54:48;;;;;;;3.40;0.85;;;13.10;76.40;;;;;;5069703;28;20032;-74
2021/05/22 07:57:15;;;;;;;4.10;0.73;;;13.10;76.80;;;;;;5066504;28;20037;-74
2021/05/22 07:59:42;;;;;;;5.35;1.50;;;13.10;76.20;;;;;;5059172;28;20103;-73
2021/05/22 08:02:26;;;;;;;18.13;1.65;;;13.10;76.80;;;;;;5054712;28;20031;-72
2021/05/22 08:04:51;;;;;;;3.42;0.90;;;13.10;77.10;;;;;;5070750;28;20032;-73
2021/05/22 08:07:17;;;;;;;5.47;1.02;;;13.10;77.00;;;;;;5069164;28;20035;-74
2021/05/22 08:09:43;;;;;;;3.50;1.10;;;13.10;76.00;;;;;;5069138;28;20029;-73
2021/05/22 08:12:09;;;;;;;4.00;1.08;;;13.10;76.20;;;;;;5069769;28;20028;-74
2021/05/22 08:14:38;;;;;;;5.85;1.23;;;13.20;76.10;;;;;;5061324;28;20033;-75
2021/05/22 08:17:03;;;;;;;6.28;1.35;;;13.30;76.50;;;;;;5065515;28;20024;-72
2021/05/22 08:19:29;;;;;;;11.80;1.40;;;13.30;76.00;;;;;;5070809;28;20039;-73
2021/05/22 08:21:55;;;;;;;4.28;1.65;;;13.30;75.70;;;;;;5070787;28;20028;-73
2021/05/22 08:24:20;;;;;;;3.83;1.10;;;13.20;77.00;;;;;;5070891;28;20107;-72
2021/05/22 08:26:46;;;;;;;6.00;1.20;;;13.10;77.30;;;;;;5068696;28;20059;-72
2021/05/22 08:29:14;;;;;;;6.32;1.30;;;13.20;78.10;;;;;;5071753;28;20052;-72
2021/05/22 08:31:39;;;;;;;3.15;0.90;;;13.10;78.40;;;;;;5068769;28;20028;-73
2021/05/22 08:34:05;;;;;;;3.22;0.90;;;13.10;78.50;;;;;;5064638;28;20032;-72
2021/05/22 08:36:32;;;;;;;5.97;1.20;;;13.10;79.30;;;;;;5067398;28;20057;-73
2021/05/22 08:38:58;;;;;;;3.42;1.00;;;13.20;79.30;;;;;;5066072;28;20034;-72
2021/05/22 08:41:24;;;;;;;4.82;1.30;;;13.20;79.40;;;;;;5052317;28;20016;-73
2021/05/22 08:43:53;;;;;;;2.90;1.27;;;13.20;79.20;;;;;;5069771;28;20020;-72
2021/05/22 08:46:21;;;;;;;3.50;1.00;;;13.20;79.10;;;;;;5066043;28;20051;-72
2021/05/22 08:48:48;;;;;;;4.35;1.10;;;13.20;80.10;;;;;;5066575;28;20103;-72
2021/05/22 08:51:15;;;;;;;3.83;1.08;;;13.20;79.50;;;;;;5068454;28;20085;-71
2021/05/22 08:53:41;;;;;;;5.20;1.50;;;13.20;80.00;;;;;;5067352;28;20035;-71
2021/05/22 08:56:07;;;;;;;6.65;1.40;;;13.20;80.10;;;;;;5062885;28;20028;-70
2021/05/22 08:58:33;;;;;;;6.88;1.60;;;13.30;80.30;;;;;;5068214;28;20107;-71
2021/05/22 09:01:01;;;;;;;4.68;1.30;;;13.20;80.50;;;;;;5068926;28;20033;-71
2021/05/22 09:03:28;;;;;;;5.65;1.58;;;13.20;81.40;;;;;;5064548;28;20479;-72
2021/05/22 09:05:54;;;;;;;5.40;1.45;;;13.10;82.00;;;;;;5067283;28;20530;-71
2021/05/22 09:08:19;;;;;;;3.38;1.23;;;13.10;83.60;;;;;;5062424;28;20103;-71
2021/05/22 09:10:47;;;;;;;4.70;1.40;;;13.10;83.90;;;;;;5064125;28;20421;-72
2021/05/22 09:13:22;;;;;;;4.60;1.38;;;13.00;85.00;;;;;;5061803;28;20024;-72
2021/05/22 09:15:54;;;;;;;5.70;1.30;;;12.90;86.20;;;;;;5062414;28;20094;-71
2021/05/22 09:18:21;;;;;;;;;;;12.80;87.10;;;;;;5064373;28;20024;-73
2021/05/22 09:20:59;;;;;;;6.00;1.60;;;12.70;87.50;;;;;;5065253;28;20350;-71
2021/05/22 09:23:32;;;;;;;3.53;1.17;;;12.70;88.50;;;;;;5063541;28;20024;-73
2021/05/22 09:26:01;;;;;;;5.00;1.30;;;12.60;89.30;;;;;;5066790;28;20029;-72
2021/05/22 09:28:29;;;;;;;11.73;1.50;;;12.60;90.30;;;;;;5063687;28;20501;-72
2021/05/22 09:30:56;;;;;;;5.57;1.65;;;12.50;90.60;;;;;;5068837;28;20033;-71
2021/05/22 09:33:28;;;;;;;7.18;1.50;;;12.40;90.60;;;;;;5061492;28;20039;-73
2021/05/22 09:35:57;;;;;;;6.22;1.60;;;12.40;90.90;;;;;;5059202;28;20047;-73
2021/05/22 09:38:42;;;;;;;5.65;1.33;;;12.30;91.10;;;;;;5066383;28;20107;-72
2021/05/22 09:41:22;;;;;;;5.22;1.48;;;12.20;91.00;;;;;;5057234;28;20033;-72
2021/05/22 09:44:03;;;;;;;4.95;1.65;;;12.20;91.00;;;;;;5065483;28;20051;-72
2021/05/22 09:46:29;;;;;;;4.75;2.03;;;12.20;91.20;;;;;;5052734;28;20395;-72
2021/05/22 09:49:07;;;;;;;3.70;1.17;;;12.10;91.20;;;;;;5071886;28;20044;-73
2021/05/22 09:51:35;;;;;;;3.38;1.60;;;12.20;91.70;;;;;;5066991;28;20020;-72
2021/05/22 09:54:01;;;;;;;3.25;1.50;;;12.20;91.70;;;;;;5065180;28;20036;-71
2021/05/22 09:56:27;;;;;;;7.25;1.30;;;12.20;91.40;;;;;;5069925;28;20032;-71
2021/05/22 09:58:55;;;;;;;6.20;1.38;;;12.20;91.30;;;;;;5065151;28;20033;-72
2021/05/22 10:01:25;;;;;;;5.38;1.35;;;12.30;91.20;;;;;;5065739;28;20070;-73
2021/05/22 10:03:51;;;;;;;2.45;1.10;;;12.30;91.10;;;;;;5068826;28;20502;-72
2021/05/22 10:06:17;;;;;;;3.22;1.40;;;12.30;91.30;;;;;;5068859;28;20036;-74
2021/05/22 10:08:43;;;;;;;5.63;1.50;;;12.30;91.30;;;;;;5069802;28;20031;-72
2021/05/22 10:11:09;;;;;;;10.57;1.85;;;12.30;90.70;;;;;;5067979;28;20028;-72
2021/05/22 10:13:36;;;;;;;4.60;1.45;;;12.30;91.00;;;;;;5069745;28;20055;-72
2021/05/22 10:16:05;;;;;;;5.28;1.27;;;12.40;90.90;;;;;;5066904;28;20029;-72
2021/05/22 10:18:31;;;;;;;7.25;1.63;;;12.60;90.90;;;;;;5064485;28;20555;-74
2021/05/22 10:21:00;;;;;;;2.45;1.08;;;12.60;90.40;;;;;;5072073;28;20028;-73
2021/05/22 10:23:27;;;;;;;4.68;1.63;;;12.60;90.20;;;;;;5070425;28;20028;-71
2021/05/22 10:25:57;;;;;;;4.68;1.08;;;12.50;90.20;;;;;;5065822;28;20063;-73
2021/05/22 10:28:24;;;;;;;9.07;1.23;;;12.40;90.70;;;;;;5065380;28;20028;-73
2021/05/22 10:30:50;;;;;;;4.45;1.38;;;12.40;90.80;;;;;;5071302;28;20036;-71
2021/05/22 10:33:19;;;;;;;4.55;1.25;;;12.30;90.80;;;;;;5064313;28;20031;-72
2021/05/22 10:35:56;;;;;;;4.47;1.20;;;12.20;91.20;;;;;;5066425;28;20473;-71
2021/05/22 10:38:34;;;;;;;3.67;1.00;;;12.20;91.40;;;;;;5046562;28;20020;-73
2021/05/22 10:41:15;;;;;;;2.65;1.17;;;12.10;91.10;;;;;;5058958;28;20045;-74
2021/05/22 10:43:58;;;;;;;4.30;1.27;;;12.00;91.50;;;;;;5030929;28;20043;-72
2021/05/22 10:46:24;;;;;;;5.40;1.30;;;12.10;91.50;;;;;;5032560;28;20021;-71
2021/05/22 10:49:02;;;;;;;3.67;1.17;;;12.10;91.70;;;;;;5063716;28;20037;-74
2021/05/22 10:51:36;;;;;;;4.80;1.55;;;12.10;92.00;;;;;;5049844;28;20107;-73
2021/05/22 10:54:10;;;;;;;3.92;1.20;;;12.00;92.10;;;;;;5059218;28;20556;-75
2021/05/22 10:57:01;;;;;;;2.67;1.20;;;12.00;92.20;;;;;;5047786;28;20043;-73
2021/05/22 10:59:27;;;;;;;3.72;1.60;;;12.00;92.30;;;;;;5047200;28;20494;-75
2021/05/22 11:01:53;;;;;;;5.03;1.48;;;11.90;92.20;;;;;;5053886;28;20134;-74
2021/05/22 11:04:23;;;;;;;4.85;1.98;;;11.80;92.30;;;;;;5070044;28;20453;-74
2021/05/22 11:07:17;;;;;;;5.97;1.30;;;11.90;92.40;;;;;;5067675;28;20033;-74
2021/05/22 11:09:44;;;;;;;3.78;1.27;;;11.80;92.20;;;;;;5062691;28;20132;-73
2021/05/22 11:12:09;;;;;;;8.27;1.48;;;11.80;92.30;;;;;;5067228;28;20556;-74
2021/05/22 11:14:53;;;;;;;2.83;1.15;;;11.80;92.50;;;;;;5063081;28;20028;-74
2021/05/22 11:17:19;;;;;;;3.00;1.25;;;11.80;92.50;;;;;;5062646;28;20081;-74
2021/05/22 11:20:00;;;;;;;3.10;1.33;;;11.80;92.50;;;;;;5068349;28;20033;-74
2021/05/22 11:22:28;;;;;;;3.60;1.40;;;11.80;92.60;;;;;;5049085;28;20094;-75
2021/05/22 11:25:03;;;;;;;7.35;2.20;;;11.80;92.60;;;;;;5071811;28;20058;-74
2021/05/22 11:27:48;;;;;;;4.20;1.45;;;11.80;92.60;;;;;;5066647;28;20074;-74
2021/05/22 11:30:42;;;;;;;4.85;1.50;;;11.80;92.40;;;;;;5071994;28;20474;-72
2021/05/22 11:33:29;;;;;;;3.13;1.38;;;11.90;92.70;;;;;;5047359;28;20040;-73
2021/05/22 11:36:12;;;;;;;3.05;1.42;;;11.80;92.50;;;;;;5051740;28;20029;-73
2021/05/22 11:38:38;;;;;;;3.85;1.80;;;11.90;92.80;;;;;;5068902;28;20032;-73
2021/05/22 11:41:06;;;;;;;3.17;1.33;;;11.90;92.90;;;;;;5045112;28;20020;-72
2021/05/22 11:43:32;;;;;;;7.03;2.28;;;11.90;92.80;;;;;;5066094;28;20032;-72
2021/05/22 11:46:01;;;;;;;4.68;1.80;;;11.90;93.00;;;;;;5068704;28;20383;-72
2021/05/22 11:48:41;;;;;;;4.40;1.60;;;12.00;93.10;;;;;;5071130;28;20035;-72
2021/05/22 11:51:17;;;;;;;3.85;2.10;;;12.00;93.10;;;;;;5069629;28;20107;-72
2021/05/22 11:53:53;;;;;;;7.20;2.35;;;11.90;92.70;;;;;;5062814;28;20035;-73
2021/05/22 11:56:19;;;;;;;6.90;1.77;;;12.00;92.90;;;;;;5068345;28;20040;-72
2021/05/22 11:58:48;;;;;;;7.97;1.92;;;12.00;93.00;;;;;;5066779;28;20021;-74
2021/05/22 12:01:21;;;;;;;2.67;1.50;;;11.90;92.70;;;;;;5070995;28;20025;-73
2021/05/22 12:03:49;;;;;;;6.07;1.88;;;11.90;92.80;;;;;;5071346;28;20066;-74
2021/05/22 12:06:28;;;;;;;3.38;1.60;;;11.90;92.70;;;;;;5069220;28;20028;-74
2021/05/22 12:09:07;;;;;;;3.92;1.90;;;12.00;92.80;;;;;;5063612;28;20025;-74
2021/05/22 12:11:36;;;;;;;6.00;1.73;;;12.00;92.60;;;;;;5063779;28;20027;-73
2021/05/22 12:14:05;;;;;;;3.25;1.88;;;11.90;92.50;;;;;;5064962;28;20082;-73
2021/05/22 12:16:32;;;;;;;6.07;3.08;;;12.00;92.50;;;;;;5067860;28;20020;-74
2021/05/22 12:18:57;;;;;;;6.00;2.00;;;12.00;92.70;;;;;;5069956;28;20050;-73
2021/05/22 12:21:31;;;;;;;4.32;2.08;;;12.00;92.40;;;;;;5043315;28;20021;-73
2021/05/22 12:24:16;;;;;;;6.43;2.45;;;12.00;92.50;;;;;;5065562;28;20036;-73
2021/05/22 12:26:55;;;;;;;3.47;1.73;;;12.10;92.40;;;;;;5064164;28;20162;-73
2021/05/22 12:29:28;;;;;;;4.00;1.92;;;12.10;92.60;;;;;;5061027;28;20478;-73
2021/05/22 12:31:59;;;;;;;5.20;1.92;;;12.10;92.50;;;;;;5065182;28;20931;-73
2021/05/22 12:34:33;;;;;;;4.37;2.20;;;12.20;92.20;;;;;;5062612;28;20367;-73
2021/05/22 12:37:04;;;;;;;2.78;1.58;;;12.20;92.30;;;;;;5062537;28;20069;-73
2021/05/22 12:39:43;;;;;;;4.70;1.83;;;12.30;92.20;;;;;;5063141;28;20029;-73
2021/05/22 12:42:25;;;;;;;3.20;1.80;;;12.30;92.30;;;;;;5059507;28;20482;-72
2021/05/22 12:45:06;;;;;;;4.90;2.08;;;12.30;92.40;;;;;;5063540;28;20474;-73
2021/05/22 12:47:44;;;;;;;3.13;2.00;;;12.30;92.40;;;;;;5058736;28;20103;-72
2021/05/22 12:50:11;;;;;;;3.92;2.22;;;12.30;92.50;;;;;;5061839;28;20021;-72
2021/05/22 12:52:52;;;;;;;4.75;2.05;;;12.30;92.40;;;;;;5062761;28;20029;-72
2021/05/22 12:55:20;;;;;;;5.63;2.10;;;12.40;92.60;;;;;;5061562;28;20058;-72
2021/05/22 12:57:47;;;;;;;5.03;2.03;;;12.50;92.50;;;;;;5059196;28;20064;-73